Aeroporto :
LOGIN :

Iscrizione | Disclaimer

   EN    FR    IT 

 










Sommario :    VFR   VFR Marginale   IFR   IFR Intensivo   IFR Molto Intensivo
Visibilità : 
Base nubi : 
>= 8 km
>= 3000ft
5 / 8 km
1000 / 3000 ft
1500m / 5 km
500 / 1000 ft
800 / 1500m
200 / 500 ft
< 800m
< 200 ft
Simboli :   Temporali  Nebbia  Neve Forte  Precipitazioni Forti  Vento > 20 kt
SIGMETs :   Varie  Temporali  Ghiacco  Turbolenza  Onda orograficha  Ceneri Vulcaniche






- Altitudine del aeroporto : 17 ft
- Codice IATA : KLR


ESMQ - Kalmar

ULTIMO METAR :
  • 141350Z 15004KT CAVOK 06/05 Q1012

METARs OBSOLETI :
  • 141320Z 15005KT 9999 FEW035 BKN064 07/06 Q1011
  • 141250Z 18004KT 9999 FEW029 SCT034 BKN063 08/05 Q1011
  • 141220Z 19004KT 9999 FEW024 SCT039 BKN056 08/05 Q1011
  • 141150Z 19005KT CAVOK 08/05 Q1010
  • 141120Z 21004KT 9999 FEW008 SCT027 08/05 Q1010

TAF TAF ESMQ
Valido dal 14 a 12 ore il 14 a 21 ore UTC


141130Z 1412/1421 18005KT 9999 SCT030
TEMPO 1416/1418 3000 BR
TEMPO 1418/1421 0300 FG VV002



MetMap, La meteo Aeronautica in un colpo d'occhio ! - Copyright ORBIFLY Dicembre 2007 - Disclaimer

ORBIFLY MET'MAP TEAM :

Programmazione e sviluppo : Alexandra Zaïnal
Concezione e sviluppo : Baudouin d'Aumeries
Co-Programmazione e sviluppo : Marc-Olivier Méhu
Supporto tecnico e logistico : Manuel Goepfert
Aiuto per la traduzione : Arnaldo La Scala

Contatto : metmap@orbifly.com




FONTI E CREDITI :

   NOAA